Time;durP1;ratioP1;P1;durP2;ratioP2;P2;SDS_P1;SDS_P2;PMS_P1;PMS_P2;Temp;Humidity;BMP_temperature;BMP_pressure;BME280_temperature;BME280_humidity;BME280_pressure;Samples;Min_cycle;Max_cycle;Signal;HPM_P1;HPM_P2
2021/09/12 00:00:57;;;;;;;12.88;10.80;;;17.00;99.90;;;;;;5073408;28;20643;-59
2021/09/12 00:03:25;;;;;;;13.63;11.38;;;17.00;99.90;;;;;;5073164;28;20205;-60
2021/09/12 00:05:53;;;;;;;12.65;11.35;;;17.10;99.90;;;;;;5073032;28;20232;-60
2021/09/12 00:08:21;;;;;;;15.07;12.95;;;17.20;99.90;;;;;;5072701;28;20303;-60
2021/09/12 00:10:49;;;;;;;15.10;13.50;;;17.20;99.90;;;;;;5073122;28;20200;-61
2021/09/12 00:13:17;;;;;;;14.32;12.93;;;17.30;99.90;;;;;;5072949;28;20295;-60
2021/09/12 00:15:45;;;;;;;13.00;11.70;;;17.40;99.90;;;;;;5073191;28;20313;-61
2021/09/12 00:18:14;;;;;;;12.38;11.18;;;17.40;99.90;;;;;;5073364;28;20204;-59
2021/09/12 00:20:42;;;;;;;15.20;11.20;;;17.40;99.90;;;;;;5073217;28;20204;-60
2021/09/12 00:23:10;;;;;;;13.13;11.73;;;17.50;99.90;;;;;;5072828;28;20232;-60
2021/09/12 00:25:38;;;;;;;12.63;10.93;;;17.50;99.90;;;;;;5072980;28;20205;-60
2021/09/12 00:28:06;;;;;;;12.10;10.80;;;17.50;99.90;;;;;;5072790;28;20216;-61
2021/09/12 00:30:34;;;;;;;11.77;10.57;;;17.50;99.90;;;;;;5073024;28;20215;-61
2021/09/12 00:33:02;;;;;;;12.45;11.15;;;17.50;99.90;;;;;;5073064;28;20232;-60
2021/09/12 00:35:31;;;;;;;13.23;11.40;;;17.50;99.90;;;;;;5072894;28;20231;-59
2021/09/12 00:37:59;;;;;;;11.27;10.18;;;17.50;99.90;;;;;;5072417;28;20196;-60
2021/09/12 00:40:27;;;;;;;11.15;10.05;;;17.50;99.90;;;;;;5072581;28;20205;-61
2021/09/12 00:42:54;;;;;;;11.25;10.13;;;17.50;99.90;;;;;;5072471;28;20201;-60
2021/09/12 00:45:22;;;;;;;10.70;9.63;;;17.40;99.90;;;;;;5072684;28;20193;-60
2021/09/12 00:47:50;;;;;;;12.25;11.00;;;17.30;99.90;;;;;;5072436;28;20213;-60
2021/09/12 00:50:19;;;;;;;11.95;10.75;;;17.30;99.90;;;;;;5072862;28;20295;-60
2021/09/12 00:52:49;;;;;;;11.65;10.20;;;17.10;99.90;;;;;;5072658;28;20201;-60
2021/09/12 00:55:18;;;;;;;11.60;10.40;;;17.10;99.90;;;;;;5072309;28;20185;-62
2021/09/12 00:57:47;;;;;;;12.57;10.50;;;17.00;99.90;;;;;;5072611;28;20573;-61
2021/09/12 01:00:15;;;;;;;12.38;10.45;;;16.90;99.90;;;;;;5072557;28;20236;-60
2021/09/12 01:02:43;;;;;;;12.13;10.70;;;16.80;99.90;;;;;;5072369;28;20197;-61
2021/09/12 01:05:12;;;;;;;12.38;10.98;;;16.80;99.90;;;;;;5072391;28;20204;-60
2021/09/12 01:07:40;;;;;;;14.02;12.25;;;16.80;99.90;;;;;;5072587;28;20191;-61
2021/09/12 01:10:11;;;;;;;13.93;12.40;;;16.70;99.90;;;;;;5072357;28;20210;-60
2021/09/12 01:12:39;;;;;;;13.77;12.35;;;16.70;99.90;;;;;;5072400;28;20189;-61
2021/09/12 01:15:08;;;;;;;15.00;12.27;;;16.60;99.90;;;;;;5072608;28;20288;-61
2021/09/12 01:17:36;;;;;;;18.23;14.98;;;16.60;99.90;;;;;;5072522;28;20254;-61
2021/09/12 01:20:05;;;;;;;15.90;14.20;;;16.60;99.90;;;;;;5072833;28;20259;-59
2021/09/12 01:22:32;;;;;;;17.25;15.40;;;16.60;99.90;;;;;;5072212;28;20657;-61
2021/09/12 01:25:02;;;;;;;22.52;20.13;;;16.70;99.90;;;;;;5072116;28;20207;-60
2021/09/12 01:27:30;;;;;;;23.23;20.73;;;16.70;99.90;;;;;;5072669;28;20201;-61
2021/09/12 01:30:00;;;;;;;23.65;21.25;;;16.70;99.90;;;;;;5072127;28;20230;-60
2021/09/12 01:32:28;;;;;;;24.58;21.98;;;16.70;99.90;;;;;;5072463;28;20230;-61
2021/09/12 01:34:55;;;;;;;22.77;20.42;;;16.70;99.90;;;;;;5072450;28;20203;-61
2021/09/12 01:37:23;;;;;;;23.23;20.42;;;16.70;99.90;;;;;;5072038;28;20201;-60
2021/09/12 01:39:51;;;;;;;24.27;20.77;;;16.70;99.90;;;;;;5071902;28;20283;-60
2021/09/12 01:42:20;;;;;;;22.73;20.33;;;16.60;99.90;;;;;;5072084;28;20295;-61
2021/09/12 01:44:49;;;;;;;20.95;18.65;;;16.60;99.90;;;;;;5072059;28;20664;-63
2021/09/12 01:47:17;;;;;;;21.00;18.23;;;16.60;99.90;;;;;;5072266;28;20211;-61
2021/09/12 01:49:45;;;;;;;19.45;17.25;;;16.60;99.90;;;;;;5072199;28;20320;-61
2021/09/12 01:52:14;;;;;;;20.08;16.25;;;16.50;99.90;;;;;;5072318;28;20221;-61
2021/09/12 01:54:42;;;;;;;19.20;17.13;;;16.50;99.90;;;;;;5071457;28;20225;-60
2021/09/12 01:57:10;;;;;;;18.27;16.27;;;16.40;99.90;;;;;;5072206;28;20291;-61
2021/09/12 01:59:39;;;;;;;20.35;17.17;;;16.40;99.90;;;;;;5072671;28;20197;-62
2021/09/12 02:02:07;;;;;;;21.73;17.98;;;16.40;99.90;;;;;;5075545;28;20668;-61
2021/09/12 02:04:35;;;;;;;19.77;17.38;;;16.40;99.90;;;;;;5075899;28;20213;-60
2021/09/12 02:07:03;;;;;;;20.35;17.45;;;16.40;99.90;;;;;;5075463;28;20315;-60
2021/09/12 02:09:31;;;;;;;20.08;17.38;;;16.40;99.90;;;;;;5075465;28;20224;-61
2021/09/12 02:11:59;;;;;;;20.00;16.83;;;16.40;99.90;;;;;;5075725;28;20295;-61
2021/09/12 02:14:27;;;;;;;20.90;17.70;;;16.40;99.90;;;;;;5075875;28;20200;-61
2021/09/12 02:16:56;;;;;;;19.08;16.80;;;16.40;99.90;;;;;;5075679;28;20197;-61
2021/09/12 02:19:23;;;;;;;18.35;16.20;;;16.40;99.90;;;;;;5075339;28;20649;-60
2021/09/12 02:21:51;;;;;;;18.15;15.98;;;16.40;99.90;;;;;;5075532;28;20295;-60
2021/09/12 02:24:19;;;;;;;17.20;15.05;;;16.40;99.90;;;;;;5075418;28;20210;-60
2021/09/12 02:26:47;;;;;;;16.27;14.27;;;16.40;99.90;;;;;;5075532;28;20273;-61
2021/09/12 02:29:15;;;;;;;16.73;14.48;;;16.40;99.90;;;;;;5075263;28;20795;-62
2021/09/12 02:31:42;;;;;;;16.98;15.02;;;16.40;99.90;;;;;;5075349;28;20658;-60
2021/09/12 02:34:12;;;;;;;16.98;15.02;;;16.40;99.90;;;;;;5075406;28;20196;-61
2021/09/12 02:36:40;;;;;;;17.40;14.27;;;16.50;99.90;;;;;;5075220;28;20200;-60
2021/09/12 02:39:07;;;;;;;16.40;13.75;;;16.50;99.90;;;;;;5074884;28;20675;-60
2021/09/12 02:41:35;;;;;;;16.45;14.13;;;16.50;99.90;;;;;;5074825;28;20201;-60
2021/09/12 02:44:03;;;;;;;14.40;12.38;;;16.50;99.90;;;;;;5075117;28;20201;-60
2021/09/12 02:46:32;;;;;;;16.58;13.93;;;16.60;99.90;;;;;;5075116;28;20201;-60
2021/09/12 02:48:59;;;;;;;15.63;13.48;;;16.70;99.90;;;;;;5075020;28;20219;-60
2021/09/12 02:51:31;;;;;;;18.25;13.95;;;16.70;99.90;;;;;;5075020;28;20292;-61
2021/09/12 02:53:58;;;;;;;17.58;14.23;;;16.80;99.90;;;;;;5074913;28;20185;-60
2021/09/12 02:56:26;;;;;;;15.60;13.32;;;16.80;99.90;;;;;;5074771;28;20201;-60
2021/09/12 02:58:54;;;;;;;15.60;13.05;;;16.80;99.90;;;;;;5074656;28;20727;-60
2021/09/12 03:01:22;;;;;;;14.73;12.30;;;16.90;99.90;;;;;;5074916;28;20200;-61
2021/09/12 03:03:50;;;;;;;13.52;12.18;;;16.90;99.90;;;;;;5074837;28;20291;-61
2021/09/12 03:06:18;;;;;;;14.60;13.00;;;16.90;99.90;;;;;;5074506;28;20236;-60
2021/09/12 03:08:47;;;;;;;15.98;12.50;;;16.90;99.90;;;;;;5074271;28;20208;-60
2021/09/12 03:11:15;;;;;;;15.80;12.27;;;16.90;99.90;;;;;;5073978;28;20205;-60
2021/09/12 03:13:43;;;;;;;12.80;11.50;;;16.90;99.90;;;;;;5074444;28;20296;-61
2021/09/12 03:16:10;;;;;;;14.70;12.43;;;16.90;99.90;;;;;;5074613;28;20758;-61
2021/09/12 03:18:38;;;;;;;12.68;11.38;;;17.00;99.90;;;;;;5074364;28;20200;-62
2021/09/12 03:21:07;;;;;;;16.45;12.02;;;16.90;99.90;;;;;;5074281;28;20207;-60
2021/09/12 03:23:34;;;;;;;14.18;12.52;;;16.90;99.90;;;;;;5074757;28;20206;-60
2021/09/12 03:26:04;;;;;;;13.68;12.27;;;17.00;99.90;;;;;;5074431;28;20295;-60
2021/09/12 03:28:31;;;;;;;14.60;13.02;;;17.00;99.90;;;;;;5074424;28;20574;-61
2021/09/12 03:30:59;;;;;;;13.98;12.45;;;17.00;99.90;;;;;;5074205;28;20225;-60
2021/09/12 03:33:27;;;;;;;14.73;11.40;;;17.00;99.90;;;;;;5073985;28;20200;-60
2021/09/12 03:35:55;;;;;;;14.05;12.57;;;17.00;99.90;;;;;;5074212;28;20228;-61
2021/09/12 03:38:23;;;;;;;13.23;11.88;;;17.10;99.90;;;;;;5073959;28;20204;-61
2021/09/12 03:40:51;;;;;;;13.85;12.35;;;17.10;99.90;;;;;;5073983;28;20197;-60
2021/09/12 03:43:20;;;;;;;14.65;12.40;;;17.10;99.90;;;;;;5073999;28;20200;-60
2021/09/12 03:45:48;;;;;;;14.60;13.00;;;17.10;99.90;;;;;;5073752;28;20211;-60
2021/09/12 03:48:16;;;;;;;13.80;12.30;;;17.10;99.90;;;;;;5073885;28;20527;-61
2021/09/12 03:50:44;;;;;;;14.60;12.98;;;17.10;99.90;;;;;;5073763;28;20315;-61
2021/09/12 03:53:11;;;;;;;16.40;12.93;;;17.10;99.90;;;;;;5073700;28;20308;-60
2021/09/12 03:55:39;;;;;;;15.55;12.98;;;17.10;99.90;;;;;;5073574;28;20287;-61
2021/09/12 03:58:07;;;;;;;14.95;13.38;;;17.10;99.90;;;;;;5073694;28;20237;-60
2021/09/12 04:00:36;;;;;;;15.38;13.85;;;17.00;99.90;;;;;;5073662;28;20288;-60
2021/09/12 04:03:04;;;;;;;15.10;13.38;;;17.00;99.90;;;;;;5073715;28;20208;-60
2021/09/12 04:05:32;;;;;;;15.25;13.65;;;17.00;99.90;;;;;;5073135;28;20724;-60
2021/09/12 04:08:00;;;;;;;15.45;13.85;;;17.00;99.90;;;;;;5073162;28;20628;-60
2021/09/12 04:10:28;;;;;;;16.08;13.32;;;17.00;99.90;;;;;;5073017;28;20220;-61
2021/09/12 04:12:56;;;;;;;17.98;13.63;;;17.00;99.90;;;;;;5073180;28;20288;-60
2021/09/12 04:15:24;;;;;;;14.82;12.60;;;17.10;99.90;;;;;;5073433;28;20197;-60
2021/09/12 04:17:53;;;;;;;15.93;13.40;;;17.00;99.90;;;;;;5073427;28;20296;-61
2021/09/12 04:20:21;;;;;;;14.07;12.65;;;17.00;99.90;;;;;;5072979;28;20219;-60
2021/09/12 04:22:49;;;;;;;14.18;12.60;;;17.00;99.90;;;;;;5072312;28;20291;-59
2021/09/12 04:25:17;;;;;;;15.45;12.07;;;17.00;99.90;;;;;;5072905;28;20687;-61
2021/09/12 04:27:45;;;;;;;12.63;11.32;;;17.00;99.90;;;;;;5072945;28;20742;-61
2021/09/12 04:30:15;;;;;;;13.85;12.43;;;17.00;99.90;;;;;;5073114;28;20213;-62
2021/09/12 04:32:42;;;;;;;14.05;12.02;;;17.00;99.90;;;;;;5073142;28;20735;-59
2021/09/12 04:35:12;;;;;;;15.63;12.52;;;17.00;99.90;;;;;;5073218;28;20231;-60
2021/09/12 04:37:40;;;;;;;14.05;12.55;;;17.00;99.90;;;;;;5072913;28;20243;-61
2021/09/12 04:40:09;;;;;;;13.18;11.77;;;17.00;99.90;;;;;;5072239;28;20196;-60
2021/09/12 04:42:37;;;;;;;13.43;12.02;;;16.90;99.90;;;;;;5072823;28;20251;-61
2021/09/12 04:45:05;;;;;;;13.18;11.75;;;16.90;99.90;;;;;;5072869;28;20205;-61
2021/09/12 04:47:33;;;;;;;15.65;11.90;;;16.90;99.90;;;;;;5072803;28;20288;-62
2021/09/12 04:50:01;;;;;;;15.07;11.90;;;16.90;99.90;;;;;;5072454;28;20232;-60
2021/09/12 04:52:30;;;;;;;14.80;11.63;;;16.90;99.90;;;;;;5072423;28;20204;-61
2021/09/12 04:54:58;;;;;;;13.13;11.63;;;16.80;99.90;;;;;;5072443;28;20230;-61
2021/09/12 04:57:26;;;;;;;12.55;11.25;;;16.80;99.90;;;;;;5072485;28;20756;-61
2021/09/12 04:59:53;;;;;;;13.98;12.10;;;16.80;99.90;;;;;;5072702;28;20204;-62
2021/09/12 05:02:21;;;;;;;14.25;11.93;;;16.80;99.90;;;;;;5072532;28;20216;-63
2021/09/12 05:04:49;;;;;;;12.68;11.38;;;16.80;99.90;;;;;;5072359;28;20621;-60
2021/09/12 05:07:17;;;;;;;12.88;11.48;;;16.70;99.90;;;;;;5072176;28;20234;-61
2021/09/12 05:09:46;;;;;;;11.68;10.43;;;16.70;99.90;;;;;;5072236;28;20201;-62
2021/09/12 05:12:14;;;;;;;12.95;11.52;;;16.60;99.90;;;;;;5072490;28;20208;-62
2021/09/12 05:14:42;;;;;;;12.85;11.00;;;16.60;99.90;;;;;;5072509;28;20250;-60
2021/09/12 05:17:09;;;;;;;13.25;11.13;;;16.60;99.90;;;;;;5072500;28;20196;-61
2021/09/12 05:19:37;;;;;;;13.70;12.30;;;16.50;99.90;;;;;;5072414;28;20740;-61
2021/09/12 05:22:05;;;;;;;11.93;10.73;;;16.50;99.90;;;;;;5072168;28;20566;-62
2021/09/12 05:24:33;;;;;;;13.57;11.45;;;16.50;99.90;;;;;;5072135;28;20201;-59
2021/09/12 05:27:02;;;;;;;14.02;11.48;;;16.40;99.90;;;;;;5072185;28;20640;-60
2021/09/12 05:29:30;;;;;;;12.85;11.43;;;16.40;99.90;;;;;;5072415;28;20297;-61
2021/09/12 05:31:58;;;;;;;14.75;12.68;;;16.40;99.90;;;;;;5072237;28;20299;-59
2021/09/12 05:34:25;;;;;;;13.40;11.65;;;16.40;99.90;;;;;;5074176;28;20204;-61
2021/09/12 05:36:53;;;;;;;14.25;12.32;;;16.40;99.90;;;;;;5076576;28;20207;-62
2021/09/12 05:39:21;;;;;;;14.35;12.15;;;16.40;99.90;;;;;;5076204;28;20203;-62
2021/09/12 05:41:49;;;;;;;12.68;11.32;;;16.50;99.90;;;;;;5076232;28;20330;-61
2021/09/12 05:44:18;;;;;;;12.60;11.07;;;16.50;99.90;;;;;;5076050;28;20626;-60
2021/09/12 05:46:47;;;;;;;14.25;12.20;;;16.60;99.90;;;;;;5076199;28;20210;-60
2021/09/12 05:49:15;;;;;;;12.60;11.30;;;16.60;99.90;;;;;;5076195;28;20197;-60
2021/09/12 05:51:43;;;;;;;13.95;11.73;;;16.60;99.90;;;;;;5075733;28;20586;-60
2021/09/12 05:54:11;;;;;;;13.00;11.48;;;16.70;99.90;;;;;;5076059;28;20211;-60
2021/09/12 05:56:39;;;;;;;13.23;11.02;;;16.80;99.90;;;;;;5075697;28;20664;-61
2021/09/12 05:59:07;;;;;;;11.75;10.55;;;16.70;99.90;;;;;;5075879;28;20204;-63
2021/09/12 06:01:37;;;;;;;12.45;11.23;;;16.80;99.90;;;;;;5075954;28;20193;-60
2021/09/12 06:04:05;;;;;;;13.48;11.10;;;16.80;99.90;;;;;;5075719;28;20204;-61
2021/09/12 06:06:33;;;;;;;13.25;11.63;;;16.80;99.90;;;;;;5075679;28;20229;-60
2021/09/12 06:09:01;;;;;;;14.32;11.98;;;16.90;99.90;;;;;;5075715;28;20205;-62
2021/09/12 06:11:32;;;;;;;12.32;10.95;;;17.00;99.90;;;;;;5075326;28;20695;-61
2021/09/12 06:14:00;;;;;;;14.07;12.63;;;17.10;99.90;;;;;;5075769;28;20207;-61
2021/09/12 06:16:28;;;;;;;15.15;12.27;;;17.20;99.90;;;;;;5075603;28;20209;-62
2021/09/12 06:18:57;;;;;;;12.93;11.48;;;17.40;99.90;;;;;;5075634;28;20205;-61
2021/09/12 06:21:25;;;;;;;13.63;12.10;;;17.50;99.90;;;;;;5075244;28;20205;-62
2021/09/12 06:23:53;;;;;;;14.73;12.60;;;17.60;99.90;;;;;;5075285;28;20197;-60
2021/09/12 06:26:20;;;;;;;13.63;12.23;;;17.70;99.90;;;;;;5075356;28;20200;-61
2021/09/12 06:28:48;;;;;;;12.13;10.93;;;17.90;99.90;;;;;;5075424;28;20200;-61
2021/09/12 06:31:16;;;;;;;12.18;10.77;;;17.90;99.90;;;;;;5075049;28;20721;-60
2021/09/12 06:33:44;;;;;;;12.60;11.07;;;18.10;99.90;;;;;;5075255;28;20205;-61
2021/09/12 06:36:13;;;;;;;12.63;11.35;;;18.10;99.90;;;;;;5075301;28;20547;-60
2021/09/12 06:38:41;;;;;;;13.93;12.43;;;18.20;99.90;;;;;;5074808;28;20300;-61
2021/09/12 06:41:09;;;;;;;12.23;10.95;;;18.20;99.90;;;;;;5075053;28;20199;-61
2021/09/12 06:43:37;;;;;;;12.82;11.18;;;18.30;99.90;;;;;;5075139;28;20196;-61
2021/09/12 06:46:06;;;;;;;11.70;10.50;;;18.30;99.90;;;;;;5074156;28;20211;-61
2021/09/12 06:48:33;;;;;;;12.13;10.98;;;18.30;99.90;;;;;;5074654;28;20552;-60
2021/09/12 06:51:01;;;;;;;12.13;10.93;;;18.40;99.90;;;;;;5074555;28;20201;-60
2021/09/12 06:53:31;;;;;;;14.02;12.63;;;18.50;99.90;;;;;;5074923;28;20211;-61
2021/09/12 06:55:58;;;;;;;12.68;11.48;;;18.60;99.90;;;;;;5074583;28;20206;-60
2021/09/12 06:58:27;;;;;;;14.60;12.27;;;18.60;99.90;;;;;;5074838;28;20295;-60
2021/09/12 07:00:56;;;;;;;12.65;11.35;;;18.70;99.90;;;;;;5074351;28;20209;-61
2021/09/12 07:03:24;;;;;;;11.90;10.70;;;18.80;99.90;;;;;;5074858;28;20235;-60
2021/09/12 07:05:52;;;;;;;12.88;11.10;;;18.90;99.90;;;;;;5074264;28;20233;-61
2021/09/12 07:08:20;;;;;;;11.38;10.18;;;19.10;99.90;;;;;;5074545;28;20186;-61
2021/09/12 07:10:49;;;;;;;12.38;10.00;;;19.20;99.90;;;;;;5074329;28;20243;-59
2021/09/12 07:13:17;;;;;;;11.93;10.52;;;19.20;99.90;;;;;;5074044;28;20649;-61
2021/09/12 07:15:45;;;;;;;15.55;11.75;;;19.30;99.90;;;;;;5074171;28;20200;-61
2021/09/12 07:18:13;;;;;;;12.60;11.30;;;19.40;99.90;;;;;;5074558;28;20224;-61
2021/09/12 07:20:41;;;;;;;10.57;9.48;;;19.50;99.90;;;;;;5074462;28;20223;-60
2021/09/12 07:23:08;;;;;;;12.10;9.90;;;19.60;99.90;;;;;;5074107;28;20192;-60
2021/09/12 07:25:36;;;;;;;11.18;9.90;;;19.60;99.90;;;;;;5073965;28;20204;-61
2021/09/12 07:28:05;;;;;;;11.18;9.93;;;19.70;99.90;;;;;;5074164;28;20556;-62
2021/09/12 07:30:33;;;;;;;12.40;10.85;;;19.80;99.90;;;;;;5073911;28;20667;-61
2021/09/12 07:33:01;;;;;;;11.93;10.20;;;19.80;99.90;;;;;;5074085;28;20229;-60
2021/09/12 07:35:29;;;;;;;10.57;9.60;;;20.00;99.90;;;;;;5074280;28;20224;-60
2021/09/12 07:37:57;;;;;;;10.07;9.00;;;20.00;99.90;;;;;;5074120;28;20201;-61
2021/09/12 07:40:28;;;;;;;10.05;8.70;;;20.10;99.90;;;;;;5073016;28;20195;-61
2021/09/12 07:42:56;;;;;;;10.95;9.85;;;20.10;99.90;;;;;;5074062;28;20620;-61
2021/09/12 07:45:25;;;;;;;12.25;10.70;;;20.30;99.90;;;;;;5073712;28;20205;-61
2021/09/12 07:47:53;;;;;;;11.73;10.52;;;20.40;99.90;;;;;;5073997;28;20269;-61
2021/09/12 07:50:21;;;;;;;9.80;8.80;;;20.40;99.90;;;;;;5073916;28;20203;-60
2021/09/12 07:52:48;;;;;;;10.38;9.23;;;20.40;99.90;;;;;;5073807;28;20217;-61
2021/09/12 07:55:17;;;;;;;13.68;10.93;;;20.50;99.90;;;;;;5073755;28;20236;-62
2021/09/12 07:57:44;;;;;;;10.38;9.35;;;20.60;99.90;;;;;;5072285;28;20649;-60
2021/09/12 08:00:13;;;;;;;11.52;10.40;;;20.70;99.90;;;;;;5073812;28;20197;-60
2021/09/12 08:02:43;;;;;;;14.15;10.38;;;21.00;99.90;;;;;;5073423;28;20201;-61
2021/09/12 08:05:12;;;;;;;13.38;12.07;;;21.00;99.90;;;;;;5073395;28;20715;-59
2021/09/12 08:07:40;;;;;;;12.05;10.90;;;21.30;99.90;;;;;;5073383;28;20319;-61
2021/09/12 08:10:08;;;;;;;10.73;9.73;;;21.50;99.90;;;;;;5072818;28;20205;-61
2021/09/12 08:12:36;;;;;;;11.82;10.20;;;21.70;99.90;;;;;;5073208;28;20343;-59
2021/09/12 08:15:04;;;;;;;10.68;9.57;;;21.80;99.90;;;;;;5073181;28;20200;-61
2021/09/12 08:17:32;;;;;;;9.80;8.90;;;21.80;99.90;;;;;;5072348;28;20538;-61
2021/09/12 08:20:02;;;;;;;10.20;9.23;;;21.60;99.90;;;;;;5073152;28;20657;-61
2021/09/12 08:22:30;;;;;;;9.55;8.23;;;21.50;99.90;;;;;;5073209;28;20204;-60
2021/09/12 08:24:58;;;;;;;8.60;7.63;;;21.50;99.90;;;;;;5073192;28;20204;-60
2021/09/12 08:27:25;;;;;;;9.50;8.07;;;21.60;99.90;;;;;;5073362;28;20200;-59
2021/09/12 08:29:53;;;;;;;9.27;8.38;;;21.60;99.90;;;;;;5073221;28;20197;-61
2021/09/12 08:32:21;;;;;;;10.27;9.30;;;21.60;99.90;;;;;;5073051;28;20227;-62
2021/09/12 08:34:49;;;;;;;9.63;8.73;;;21.50;99.90;;;;;;5073015;28;20295;-60
2021/09/12 08:37:19;;;;;;;9.68;8.73;;;21.40;99.90;;;;;;5073164;28;20291;-60
2021/09/12 08:39:48;;;;;;;9.38;8.45;;;21.40;99.90;;;;;;5072825;28;20192;-60
2021/09/12 08:42:18;;;;;;;9.18;7.60;;;21.30;99.90;;;;;;5073052;28;20199;-63
2021/09/12 08:44:47;;;;;;;9.95;8.95;;;21.20;99.90;;;;;;5072725;28;20204;-61
2021/09/12 08:47:16;;;;;;;9.50;8.48;;;21.40;99.90;;;;;;5072763;28;20731;-60
2021/09/12 08:49:45;;;;;;;9.48;8.52;;;21.60;99.90;;;;;;5072936;28;20204;-61
2021/09/12 08:52:14;;;;;;;9.50;8.57;;;21.90;99.90;;;;;;5072815;28;20207;-61
2021/09/12 08:54:43;;;;;;;8.77;8.00;;;22.10;99.90;;;;;;5072680;28;20200;-60
2021/09/12 08:57:11;;;;;;;10.07;8.93;;;22.40;99.90;;;;;;5072815;28;20200;-60
2021/09/12 08:59:39;;;;;;;9.57;8.65;;;22.30;99.90;;;;;;5072686;28;20303;-63
2021/09/12 09:02:09;;;;;;;9.15;8.25;;;22.20;99.90;;;;;;5072772;28;20279;-59
2021/09/12 09:04:37;;;;;;;9.35;8.52;;;22.40;99.90;;;;;;5083991;28;20184;-62
2021/09/12 09:07:07;;;;;;;11.05;10.05;;;22.50;99.90;;;;;;5088871;28;20603;-62
2021/09/12 09:09:46;;;;;;;11.45;10.00;;;22.50;99.90;;;;;;5095572;28;20192;-64
2021/09/12 09:12:21;;;;;;;9.35;8.48;;;22.70;99.90;;;;;;5092154;28;20192;-60
2021/09/12 09:15:11;;;;;;;9.68;8.63;;;22.90;99.90;;;;;;5092720;28;20199;-62
2021/09/12 09:17:41;;;;;;;9.05;8.25;;;23.10;99.90;;;;;;5092715;28;20277;-65
2021/09/12 09:20:17;;;;;;;11.18;10.07;;;23.40;99.90;;;;;;5092348;28;20194;-62
2021/09/12 09:22:47;;;;;;;9.63;8.73;;;23.40;99.90;;;;;;5092421;28;20182;-61
2021/09/12 09:25:19;;;;;;;9.60;8.70;;;23.30;99.90;;;;;;5092598;28;20556;-61
2021/09/12 09:28:07;;;;;;;8.82;7.55;;;23.10;99.90;;;;;;5076756;28;20204;-62
2021/09/12 09:30:37;;;;;;;6.68;6.07;;;22.90;99.90;;;;;;5088888;28;20207;-59
2021/09/12 09:33:17;;;;;;;9.93;8.25;;;22.70;99.90;;;;;;5092098;28;20613;-57
2021/09/12 09:35:53;;;;;;;9.20;8.38;;;22.50;99.90;;;;;;5091917;28;20644;-58
2021/09/12 09:38:21;;;;;;;9.25;8.07;;;22.30;99.90;;;;;;5092408;28;20188;-58
2021/09/12 09:41:03;;;;;;;8.85;7.95;;;22.00;99.90;;;;;;5091805;28;20719;-60
2021/09/12 09:43:38;;;;;;;8.55;7.60;;;22.10;99.90;;;;;;5092566;28;20676;-61
2021/09/12 09:46:07;;;;;;;6.45;5.85;;;22.20;99.90;;;;;;5092328;28;20199;-60
2021/09/12 09:48:35;;;;;;;6.82;6.22;;;22.40;99.90;;;;;;5092089;28;20211;-60
2021/09/12 09:51:04;;;;;;;7.57;6.88;;;22.50;99.90;;;;;;5091826;28;20211;-60
2021/09/12 09:53:35;;;;;;;8.77;7.90;;;22.50;99.90;;;;;;5091979;28;20228;-60
2021/09/12 09:56:05;;;;;;;7.95;7.18;;;22.70;99.90;;;;;;5091475;28;20648;-60
2021/09/12 09:58:33;;;;;;;6.50;5.90;;;22.80;99.90;;;;;;5092219;28;20202;-60
2021/09/12 10:01:02;;;;;;;6.80;6.20;;;22.90;99.90;;;;;;5092034;28;20203;-59
2021/09/12 10:03:30;;;;;;;6.60;5.88;;;23.10;99.90;;;;;;5091318;28;20294;-59
2021/09/12 10:05:59;;;;;;;7.93;6.38;;;23.10;99.90;;;;;;5091669;28;20315;-60
2021/09/12 10:08:27;;;;;;;7.47;6.63;;;23.10;99.90;;;;;;5091882;28;20537;-61
2021/09/12 10:10:55;;;;;;;8.48;7.78;;;23.10;99.90;;;;;;5091544;28;20204;-60
2021/09/12 10:13:27;;;;;;;7.35;6.75;;;23.00;99.90;;;;;;5091081;28;20219;-60
2021/09/12 10:15:58;;;;;;;8.35;7.55;;;22.90;99.90;;;;;;5091881;28;20189;-61
2021/09/12 10:18:29;;;;;;;8.30;7.60;;;22.90;99.90;;;;;;5092258;28;20192;-61
2021/09/12 10:21:07;;;;;;;8.70;7.80;;;22.80;99.90;;;;;;5092611;28;20185;-61
2021/09/12 10:23:36;;;;;;;8.23;7.63;;;22.80;99.90;;;;;;5095080;28;20188;-61
2021/09/12 10:26:04;;;;;;;8.07;7.28;;;22.80;99.90;;;;;;5094920;28;20283;-59
2021/09/12 10:28:35;;;;;;;7.78;7.07;;;22.90;99.90;;;;;;5095181;28;20196;-60
2021/09/12 10:31:31;;;;;;;6.88;6.28;;;22.90;99.90;;;;;;5095353;28;20180;-60
2021/09/12 10:34:08;;;;;;;6.70;6.20;;;23.10;99.90;;;;;;5095267;28;20210;-60
2021/09/12 10:36:37;;;;;;;7.65;6.85;;;23.20;99.90;;;;;;5094845;28;20640;-60
2021/09/12 10:39:35;;;;;;;6.90;6.32;;;23.30;99.90;;;;;;5095003;28;20200;-59
2021/09/12 10:42:21;;;;;;;6.22;5.72;;;23.30;99.90;;;;;;5094995;28;20188;-59
2021/09/12 10:45:26;;;;;;;7.00;5.75;;;23.40;99.90;;;;;;5095102;28;20176;-60
2021/09/12 10:48:20;;;;;;;6.00;5.50;;;23.30;99.90;;;;;;5084865;28;20202;-59
2021/09/12 10:50:50;;;;;;;5.38;4.97;;;23.20;99.90;;;;;;5074745;28;20288;-60
2021/09/12 10:54:01;;;;;;;5.43;4.78;;;23.10;99.90;;;;;;5074796;28;20277;-59
2021/09/12 10:56:30;;;;;;;5.38;4.88;;;23.10;99.90;;;;;;5074632;28;20238;-59
2021/09/12 10:59:04;;;;;;;6.40;5.80;;;23.00;99.90;;;;;;5078283;28;20189;-60
2021/09/12 11:01:34;;;;;;;6.57;5.93;;;22.90;99.90;;;;;;5094636;28;20278;-59
2021/09/12 11:04:03;;;;;;;6.93;6.32;;;22.90;99.90;;;;;;5094677;28;20258;-59
2021/09/12 11:06:35;;;;;;;9.55;7.28;;;22.80;99.90;;;;;;5094179;28;20224;-59
2021/09/12 11:09:05;;;;;;;8.45;7.65;;;23.00;99.90;;;;;;5094461;28;20185;-60
2021/09/12 11:11:33;;;;;;;7.70;6.95;;;23.00;99.90;;;;;;5094425;28;20605;-60
2021/09/12 11:14:01;;;;;;;6.68;6.07;;;23.20;99.90;;;;;;5094876;28;20219;-60
2021/09/12 11:16:29;;;;;;;6.80;6.20;;;23.40;99.90;;;;;;5094282;28;20189;-59
2021/09/12 11:19:00;;;;;;;6.78;6.18;;;23.70;99.90;;;;;;5093987;28;20211;-60
2021/09/12 11:21:32;;;;;;;6.63;6.00;;;23.80;99.90;;;;;;5094062;28;20827;-61
2021/09/12 11:24:04;;;;;;;5.53;5.03;;;23.80;99.90;;;;;;5094332;28;20529;-60
2021/09/12 11:26:40;;;;;;;5.90;5.40;;;23.80;99.90;;;;;;5094172;28;20177;-59
2021/09/12 11:29:11;;;;;;;4.78;4.38;;;23.70;99.90;;;;;;5094336;28;20225;-59
2021/09/12 11:31:41;;;;;;;4.32;3.92;;;23.50;99.90;;;;;;5093752;28;20184;-60
2021/09/12 11:34:09;;;;;;;3.72;3.30;;;23.30;99.90;;;;;;5094104;28;20577;-59
2021/09/12 11:36:42;;;;;;;4.15;3.47;;;23.20;99.90;;;;;;5093621;28;20582;-60
2021/09/12 11:39:12;;;;;;;3.30;3.10;;;23.00;99.90;;;;;;5093686;28;20230;-61
2021/09/12 11:41:41;;;;;;;2.80;2.60;;;23.10;99.90;;;;;;5094238;28;20200;-60
2021/09/12 11:44:09;;;;;;;2.80;2.60;;;23.30;99.90;;;;;;5093816;28;20200;-60
2021/09/12 11:46:47;;;;;;;3.13;2.83;;;23.40;99.90;;;;;;5093679;28;20204;-60
2021/09/12 11:49:16;;;;;;;2.50;2.28;;;23.50;99.90;;;;;;5073517;28;20189;-61
2021/09/12 11:51:49;;;;;;;2.97;2.60;;;23.50;99.90;;;;;;5072991;28;20201;-61
2021/09/12 11:54:21;;;;;;;2.40;2.20;;;23.50;99.90;;;;;;5073294;28;20580;-60
2021/09/12 11:56:57;;;;;;;2.38;2.03;;;23.50;99.90;;;;;;5073344;28;20189;-61
2021/09/12 11:59:27;;;;;;;2.20;2.00;;;23.40;99.90;;;;;;5073039;28;20732;-57
2021/09/12 12:01:57;;;;;;;2.30;2.10;;;23.50;99.90;;;;;;5073396;28;20229;-61
2021/09/12 12:04:27;;;;;;;1.90;1.80;;;23.60;99.90;;;;;;5073031;28;20195;-61
2021/09/12 12:06:57;;;;;;;2.00;1.90;;;23.60;99.90;;;;;;5072860;28;20311;-61
2021/09/12 12:09:38;;;;;;;2.67;2.00;;;23.70;99.90;;;;;;5090587;28;20231;-61
2021/09/12 12:12:07;;;;;;;2.28;2.00;;;23.90;99.90;;;;;;5093566;28;20180;-61
2021/09/12 12:14:46;;;;;;;2.65;1.98;;;24.10;99.90;;;;;;5093487;28;20227;-61
2021/09/12 12:17:15;;;;;;;1.88;1.77;;;24.20;99.90;;;;;;5093187;28;20880;-61
2021/09/12 12:19:44;;;;;;;1.98;1.80;;;24.30;99.90;;;;;;5092790;28;20662;-59
2021/09/12 12:22:12;;;;;;;3.08;2.10;;;24.30;99.90;;;;;;5073323;28;20232;-60
2021/09/12 12:24:44;;;;;;;2.08;1.98;;;24.40;99.90;;;;;;5072718;28;20197;-59
2021/09/12 12:27:13;;;;;;;2.20;2.00;;;24.40;99.90;;;;;;5073001;28;20284;-59
2021/09/12 12:29:43;;;;;;;2.47;2.00;;;24.40;99.90;;;;;;5087023;28;20192;-60
2021/09/12 12:32:13;;;;;;;3.40;2.60;;;24.30;99.90;;;;;;5092690;28;20188;-59
2021/09/12 12:34:44;;;;;;;2.78;2.58;;;24.10;99.90;;;;;;5092142;28;20242;-59
2021/09/12 12:37:14;;;;;;;2.10;2.00;;;24.00;99.90;;;;;;5093297;28;20271;-59
2021/09/12 12:39:44;;;;;;;2.78;2.58;;;23.90;99.90;;;;;;5091638;28;20291;-60
2021/09/12 12:42:12;;;;;;;2.30;2.10;;;24.00;99.90;;;;;;5093144;28;20310;-59
2021/09/12 12:44:45;;;;;;;2.42;2.22;;;24.00;99.90;;;;;;5092625;28;20299;-60